• Join FlightAware (Why Join?)
  • Login
  • US Flag 
06:17AM EDT


 

Airport Tracker/Info


-or-


 

Live Flight TrackerFlight Track Log ✈ D-AIMA ✈ 16-Apr-2013 ✈ WSSS / SIN - EDDF / FRA

Flight Track Log - Related Links

Times and Time Zones

All times are in EDT time to prevent confusion due to time zone crossing. See the D-AIMA flight status page for this flight to view local times or setup timezone preferences in your user account.

Time Position Orientation Groundspeed Altitude Reporting Facility
EDT Latitude Longitude Course Direction KTS MPH feet Rate Location/Type
11:25AM 1.3580 103.9970 180° South 180 207 300  Level FlightAware
11:25AM 1.3690 104.0020 24° Northeast 177 204 700 1,020 Climbing FlightAware
11:26AM 1.3920 104.0120 23° Northeast 195 224 1,100 1,080 Climbing FlightAware
11:26AM 1.4160 104.0220 23° Northeast 203 234 1,700 1,200 Climbing FlightAware
11:26AM 1.4420 104.0330 23° Northeast 218 251 2,200 1,080 Climbing FlightAware
11:27AM 1.4710 104.0430 19° North 226 260 2,800 960 Climbing FlightAware
11:27AM 1.4970 104.0390 351° North 240 276 3,100 720 Climbing FlightAware
11:28AM 1.5300 104.0260 339° North 263 303 3,500 1,020 Climbing FlightAware
11:28AM 1.5470 104.0170 332° Northwest 268 308 3,900 1,800 Climbing FlightAware
11:29AM 1.5730 104.0020 330° Northwest 268 308 4,700 1,800 Climbing FlightAware
11:29AM 1.5890 103.9910 326° Northwest 268 308 5,100 1,680 Climbing FlightAware
11:29AM 1.6170 103.9640 316° Northwest 273 314 6,000 1,560 Climbing FlightAware
11:30AM 1.6430 103.9370 314° West 282 325 6,700 1,500 Climbing FlightAware
11:30AM 1.6650 103.9130 313° West 287 330 7,400 1,740 Climbing FlightAware
11:31AM 1.6920 103.8840 313° West 290 334 8,300 1,560 Climbing FlightAware
11:31AM 1.7210 103.8550 315° West 298 343 9,000 1,500 Climbing FlightAware
11:31AM 1.7300 103.8450 312° West 298 343 9,300 1,740 Climbing FlightAware
11:32AM 1.7740 103.7990 314° West 300 345 10,600 1,260 Climbing FlightAware
11:33AM 1.8140 103.7560 313° West 328 377 11,100 600 Climbing FlightAware
11:34AM 1.8630 103.7050 314° West 360 414 11,500 360 Climbing FlightAware
11:34AM 1.9010 103.6640 313° West 365 420 11,600 60 Climbing FlightAware
11:35AM 1.9400 103.6220 313° West 365 420 11,600  Level FlightAware
11:36AM 1.9890 103.5690 313° West 365 420 11,600 1,260 Level FlightAware
11:38AM 2.1763 103.4128 320° Northwest  Level Estimated
11:39AM 2.2758 103.3298 320° Northwest  Level Estimated
11:39AM 2.2120 103.1830 320° Northwest 439 505 17,300  Level FlightAware
11:40AM 2.2530 103.1110 300° West 446 513 17,900 720 Climbing FlightAware
11:41AM 2.2970 103.0320 299° West 457 526 18,400 720 Climbing FlightAware
11:41AM 2.3460 102.9470 300° West 464 534 19,000 720 Climbing FlightAware
11:42AM 2.3910 102.8680 300° West 473 544 19,500 840 Climbing FlightAware
11:43AM 2.4430 102.7790 300° West 476 548 20,200 900 Climbing FlightAware
11:44AM 2.4850 102.7090 301° West 474 545 20,800 960 Climbing FlightAware
11:44AM 2.5340 102.6370 304° West 473 544 21,500 840 Climbing FlightAware
11:45AM 2.5880 102.5540 303° West 475 547 22,000 660 Climbing FlightAware
11:46AM 2.6520 102.4560 303° West 478 550 22,600 600 Climbing FlightAware
11:47AM 2.7040 102.3770 303° West 482 555 23,000 540 Climbing FlightAware
11:47AM 2.7570 102.2970 304° West 485 558 23,400 540 Climbing FlightAware
11:48AM 2.8090 102.2170 303° West 489 563 23,800 540 Climbing FlightAware
11:49AM 2.8650 102.1310 303° West 491 565 24,200 540 Climbing FlightAware
11:49AM 2.9110 102.0590 303° West 490 564 24,600 540 Climbing FlightAware
11:50AM 2.9540 101.9860 301° West 494 568 24,900 480 Climbing FlightAware
11:51AM 3.0060 101.8980 301° West 500 575 25,200 360 Climbing FlightAware
11:51AM 3.0630 101.8000 300° West 505 581 25,500 360 Climbing FlightAware
11:52AM 3.1090 101.7210 300° West 507 583 25,800 420 Climbing FlightAware
11:53AM 3.1570 101.6370 300° West 509 586 26,100 420 Climbing FlightAware
11:54AM 3.2160 101.5390 301° West 511 588 26,400 360 Climbing FlightAware
11:54AM 3.3010 101.4680 320° Northwest 513 590 26,700 420 Climbing FlightAware
11:55AM 3.4020 101.3860 321° Northwest 513 590 27,100 480 Climbing FlightAware
11:56AM 3.4650 101.3340 321° Northwest 512 589 27,500 360 Climbing FlightAware
11:57AM 3.5870 101.2350 321° Northwest 518 596 27,700 180 Climbing FlightAware
11:58AM 3.6610 101.1740 321° Northwest 521 600 27,900 300 Climbing FlightAware
11:58AM 3.7530 101.1000 321° Northwest 521 600 28,200 360 Climbing FlightAware
12:00PM 3.8990 100.9800 321° Northwest 519 597 28,700 600 Climbing FlightAware
12:00PM 3.9840 100.9110 321° Northwest 514 592 29,400 840 Climbing FlightAware
12:01PM 4.0600 100.8500 321° Northwest 509 586 29,900 420 Climbing FlightAware
12:02PM 4.1330 100.7920 322° Northwest 518 596 30,000 60 Climbing FlightAware
12:02PM 4.2270 100.7350 329° Northwest 520 598 30,000  Level FlightAware
12:03PM 4.3100 100.6920 333° Northwest 521 600 30,000  Level FlightAware
12:04PM 4.3880 100.6150 315° West 520 598 30,000  Level FlightAware
12:05PM 4.4560 100.5460 315° West 521 600 30,000  Level FlightAware
12:05PM 4.5260 100.4760 315° West 523 602 30,000  Level FlightAware
12:06PM 4.6020 100.4000 315° West 524 603 30,000  Level FlightAware
12:07PM 4.6720 100.3300 315° West 524 603 30,000  Level FlightAware
12:07PM 4.7480 100.2550 315° West 523 602 30,000  Level FlightAware
12:08PM 4.8170 100.1860 315° West 522 601 30,000  Level FlightAware
12:09PM 4.8830 100.1200 315° West 522 601 30,000  Level FlightAware
12:09PM 4.9620 100.0410 315° West 521 600 30,000  Level FlightAware
12:10PM 5.0320 99.9710 315° West 522 601 30,000  Level FlightAware
12:11PM 5.1000 99.9030 315° West 524 603 30,000  Level FlightAware
12:12PM 5.1770 99.8270 315° West 523 602 30,000  Level FlightAware
12:12PM 5.2470 99.7570 315° West 524 603 30,000  Level FlightAware
12:13PM 5.3140 99.6900 315° West 520 598 30,000  Level FlightAware
12:14PM 5.3920 99.6120 315° West 521 600 30,000  Level FlightAware
12:14PM 5.4510 99.5530 315° West 521 600 30,000  Level FlightAware
12:15PM 5.5380 99.4660 315° West 520 598 30,000  Level FlightAware
12:16PM 5.6060 99.3990 316° Northwest 521 600 30,000  Level FlightAware
12:16PM 5.6840 99.3210 315° West 520 598 30,000  Level FlightAware
12:17PM 5.7510 99.2530 315° West 519 597 30,000  Level FlightAware
12:18PM 5.8180 99.1860 315° West 520 598 30,000  Level FlightAware
12:19PM 5.8960 99.1080 315° West 521 600 30,000  Level FlightAware
12:19PM 5.9610 99.0430 315° West 523 602 30,000  Level FlightAware
12:20PM 6.0560 98.9480 315° West 524 603 30,000  Level FlightAware
12:21PM 6.1530 98.8490 315° West 524 603 30,000  Level FlightAware
12:22PM 6.2110 98.7890 314° West 524 603 30,000  Level FlightAware
12:22PM 6.2680 98.7290 314° West 524 603 30,000  Level FlightAware
12:23PM 6.3250 98.6700 314° West 524 603 30,000  Level FlightAware
12:24PM 6.3820 98.6100 314° West 524 603 30,000  Level FlightAware
12:24PM 6.4400 98.5500 314° West 524 603 30,000  Level FlightAware
12:25PM 6.5110 98.4760 314° West 524 603 30,000  Level FlightAware
12:26PM 6.5680 98.4160 314° West 524 603 30,000  Level FlightAware
12:27PM 6.6260 98.3560 314° West 524 603 30,000  Level FlightAware
12:27PM 6.6830 98.2970 314° West 524 603 30,000  Level FlightAware
12:28PM 6.7550 98.2220 314° West 524 603 30,000  Level FlightAware
12:29PM 6.8120 98.1620 314° West 524 603 30,000  Level FlightAware
12:29PM 6.8690 98.1030 314° West 524 603 30,000  Level FlightAware
12:30PM 6.9260 98.0430 314° West 524 603 30,000 420 Level FlightAware
12:31PM 7.1820 97.8650 325° Northwest 512 589 30,600 480 Climbing FlightAware
12:32PM 7.2760 97.7950 324° Northwest 514 592 30,800 120 Climbing FlightAware
12:32PM 7.3400 97.7460 323° Northwest 514 592 30,800  Level FlightAware
12:33PM 7.4050 97.6970 323° Northwest 514 592 30,800  Level FlightAware
12:34PM 7.4700 97.6480 323° Northwest 514 592 30,800  Level FlightAware
12:35PM 7.5500 97.5860 322° Northwest 514 592 30,800  Level FlightAware
12:35PM 7.6150 97.5370 323° Northwest 514 592 30,800 2,280 Level FlightAware
12:36PM 7.6410 97.3440 278° West 506 582 33,500 2,580 Climbing FlightAware
12:36PM 7.6860 97.2820 306° West 506 582 33,600 60 Climbing FlightAware
12:37PM 7.7440 97.2010 306° West 506 582 33,600  Level FlightAware
12:38PM 7.7910 97.1360 306° West 506 582 33,600  Level FlightAware
12:39PM 7.8380 97.0710 306° West 506 582 33,600  Level FlightAware
12:39PM 7.8850 97.0060 306° West 506 582 33,600  Level FlightAware
12:40PM 7.9310 96.9410 306° West 506 582 33,600  Level FlightAware
12:41PM 7.9900 96.8600 306° West 506 582 33,600  Level FlightAware
12:41PM 8.0370 96.7950 306° West 506 582 33,600  Level FlightAware
12:42PM 8.0840 96.7300 306° West 506 582 33,600  Level FlightAware
12:43PM 8.1300 96.6650 306° West 506 582 33,600  Level FlightAware
12:43PM 8.1770 96.6000 306° West 506 582 33,600  Level FlightAware
12:44PM 8.2240 96.5350 306° West 506 582 33,600  Level FlightAware
12:45PM 8.2820 96.4530 306° West 506 582 33,600  Level FlightAware
12:46PM 8.3290 96.3880 306° West 506 582 33,600  Level FlightAware
12:48PM 8.5227 96.2214 320° Northwest  Level Estimated
12:49PM 8.6211 96.1366 320° Northwest  Level Estimated
12:50PM 8.7196 96.0518 320° Northwest  Level Estimated
12:51PM 8.8180 95.9669 320° Northwest  Level Estimated
12:52PM 8.9164 95.8820 320° Northwest  Level Estimated
12:53PM 9.0148 95.7971 320° Northwest  Level Estimated
12:54PM 9.1131 95.7120 320° Northwest  Level Estimated
12:55PM 9.2115 95.6270 320° Northwest  Level Estimated
12:56PM 9.3098 95.5419 320° Northwest  Level Estimated
12:57PM 9.4081 95.4567 319° Northwest  Level Estimated
12:58PM 9.5064 95.3715 319° Northwest  Level Estimated
12:59PM 9.6046 95.2863 319° Northwest  Level Estimated
01:00PM 9.7029 95.2010 319° Northwest  Level Estimated
01:01PM 9.8011 95.1156 319° Northwest  Level Estimated
01:02PM 9.8993 95.0302 319° Northwest  Level Estimated
01:03PM 9.9974 94.9448 319° Northwest  Level Estimated
01:04PM 10.0956 94.8593 319° Northwest  Level Estimated
01:05PM 10.1937 94.7737 319° Northwest  Level Estimated
01:06PM 10.2918 94.6881 319° Northwest  Level Estimated
01:07PM 10.3899 94.6025 319° Northwest  Level Estimated
01:08PM 10.4880 94.5168 319° Northwest  Level Estimated
01:09PM 10.5860 94.4310 319° Northwest  Level Estimated
01:10PM 10.6840 94.3452 319° Northwest  Level Estimated
01:11PM 10.7820 94.2593 319° Northwest  Level Estimated
01:12PM 10.8800 94.1734 319° Northwest  Level Estimated
01:13PM 10.9779 94.0874 319° Northwest  Level Estimated
01:14PM 11.0759 94.0013 319° Northwest  Level Estimated
01:15PM 11.1738 93.9152 319° Northwest  Level Estimated
01:16PM 11.2716 93.8291 319° Northwest  Level Estimated
01:17PM 11.3695 93.7429 319° Northwest  Level Estimated
01:18PM 11.4673 93.6566 319° Northwest  Level Estimated
01:19PM 11.5651 93.5702 319° Northwest  Level Estimated
01:20PM 11.6629 93.4838 319° Northwest  Level Estimated
01:21PM 11.7606 93.3974 319° Northwest  Level Estimated
01:22PM 11.8583 93.3109 319° Northwest  Level Estimated
01:23PM 11.9560 93.2243 319° Northwest  Level Estimated
01:24PM 12.0537 93.1376 319° Northwest  Level Estimated
01:25PM 12.1513 93.0509 319° Northwest  Level Estimated
01:26PM 12.2489 92.9641 319° Northwest  Level Estimated
01:27PM 12.3465 92.8773 319° Northwest  Level Estimated
01:28PM 12.4441 92.7904 319° Northwest  Level Estimated
01:29PM 12.5416 92.7034 319° Northwest  Level Estimated
01:30PM 12.6391 92.6164 319° Northwest  Level Estimated
01:31PM 12.7366 92.5293 319° Northwest  Level Estimated
01:32PM 12.8340 92.4421 319° Northwest  Level Estimated
01:33PM 12.9314 92.3549 319° Northwest  Level Estimated
01:34PM 13.0288 92.2676 319° Northwest  Level Estimated
01:35PM 13.1262 92.1802 319° Northwest  Level Estimated
01:36PM 13.2235 92.0928 319° Northwest  Level Estimated
01:37PM 13.3208 92.0053 319° Northwest  Level Estimated
01:38PM 13.4181 91.9177 319° Northwest  Level Estimated
01:39PM 13.5153 91.8301 319° Northwest  Level Estimated
01:40PM 13.6125 91.7423 319° Northwest  Level Estimated
01:41PM 13.7097 91.6545 319° Northwest  Level Estimated
01:42PM 13.8069 91.5667 319° Northwest  Level Estimated
01:43PM 13.9040 91.4787 319° Northwest  Level Estimated
01:44PM 14.0011 91.3907 319° Northwest  Level Estimated
01:45PM 14.0981 91.3026 319° Northwest  Level Estimated
01:46PM 14.1951 91.2145 319° Northwest  Level Estimated
01:47PM 14.2921 91.1262 319° Northwest  Level Estimated
01:48PM 14.3891 91.0379 319° Northwest  Level Estimated
01:49PM 14.4860 90.9495 319° Northwest  Level Estimated
01:50PM 14.5829 90.8611 319° Northwest  Level Estimated
01:51PM 14.6797 90.7725 319° Northwest  Level Estimated
01:52PM 14.7766 90.6839 318° Northwest  Level Estimated
01:53PM 14.8734 90.5952 318° Northwest  Level Estimated
01:54PM 14.9701 90.5064 318° Northwest  Level Estimated
01:55PM 15.0668 90.4175 318° Northwest  Level Estimated
01:56PM 15.1635 90.3286 318° Northwest  Level Estimated
01:57PM 15.2601 90.2396 318° Northwest  Level Estimated
01:58PM 15.3568 90.1505 318° Northwest  Level Estimated
01:59PM 15.4533 90.0613 318° Northwest  Level Estimated
02:00PM 15.5499 89.9720 318° Northwest  Level Estimated
02:01PM 15.6464 89.8827 318° Northwest  Level Estimated
02:02PM 15.7429 89.7932 318° Northwest  Level Estimated
02:03PM 15.8393 89.7037 318° Northwest  Level Estimated
02:04PM 15.9357 89.6141 318° Northwest  Level Estimated
02:05PM 16.0320 89.5244 318° Northwest  Level Estimated
02:06PM 16.1284 89.4346 318° Northwest  Level Estimated
02:07PM 16.2247 89.3447 318° Northwest  Level Estimated
02:08PM 16.3209 89.2548 318° Northwest  Level Estimated
02:09PM 16.4171 89.1647 318° Northwest  Level Estimated
02:10PM 16.5133 89.0746 318° Northwest  Level Estimated
02:11PM 16.6094 88.9843 318° Northwest  Level Estimated
02:12PM 16.7055 88.8940 318° Northwest  Level Estimated
02:13PM 16.8016 88.8036 318° Northwest  Level Estimated
02:14PM 16.8976 88.7131 318° Northwest  Level Estimated
02:15PM 16.9936 88.6225 318° Northwest  Level Estimated
02:16PM 17.0895 88.5318 318° Northwest  Level Estimated
02:17PM 17.1854 88.4410 318° Northwest  Level Estimated
02:18PM 17.2812 88.3502 318° Northwest  Level Estimated
02:19PM 17.3771 88.2592 318° Northwest  Level Estimated
02:20PM 17.4728 88.1681 318° Northwest  Level Estimated
02:21PM 17.5686 88.0770 318° Northwest  Level Estimated
02:22PM 17.6642 87.9857 318° Northwest  Level Estimated
02:23PM 17.7599 87.8944 318° Northwest  Level Estimated
02:24PM 17.8555 87.8029 318° Northwest  Level Estimated
02:25PM 17.9510 87.7114 318° Northwest  Level Estimated
02:26PM 18.0466 87.6197 318° Northwest  Level Estimated
02:27PM 18.1420 87.5280 318° Northwest  Level Estimated
02:28PM 18.2375 87.4361 318° Northwest  Level Estimated
02:29PM 18.3329 87.3442 318° Northwest  Level Estimated
02:30PM 18.4282 87.2521 318° Northwest  Level Estimated
02:31PM 18.5235 87.1600 317° Northwest  Level Estimated
02:32PM 18.6188 87.0677 317° Northwest  Level Estimated
02:33PM 18.7140 86.9754 317° Northwest  Level Estimated
02:34PM 18.8091 86.8829 317° Northwest  Level Estimated
02:35PM 18.9043 86.7903 317° Northwest  Level Estimated
02:36PM 18.9993 86.6977 317° Northwest  Level Estimated
02:37PM 19.0944 86.6049 317° Northwest  Level Estimated
02:38PM 19.1893 86.5120 317° Northwest  Level Estimated
02:39PM 19.2843 86.4190 317° Northwest  Level Estimated
02:40PM 19.3792 86.3259 317° Northwest  Level Estimated
02:41PM 19.4740 86.2327 317° Northwest  Level Estimated
02:42PM 19.5688 86.1394 317° Northwest  Level Estimated
02:43PM 19.6635 86.0460 317° Northwest  Level Estimated
02:44PM 19.7582 85.9524 317° Northwest  Level Estimated
02:45PM 19.8529 85.8588 317° Northwest  Level Estimated
02:46PM 19.9475 85.7650 317° Northwest  Level Estimated
02:47PM 20.0420 85.6711 317° Northwest  Level Estimated
02:48PM 20.1365 85.5771 317° Northwest  Level Estimated
02:49PM 20.2310 85.4830 317° Northwest  Level Estimated
02:50PM 20.3254 85.3888 317° Northwest  Level Estimated
02:51PM 20.4197 85.2945 317° Northwest  Level Estimated
02:52PM 20.5140 85.2001 317° Northwest  Level Estimated
02:53PM 20.6083 85.1055 317° Northwest  Level Estimated
02:54PM 20.7025 85.0108 317° Northwest  Level Estimated
02:55PM 20.7966 84.9160 317° Northwest  Level Estimated
02:56PM 20.8907 84.8211 317° Northwest  Level Estimated
02:57PM 20.9847 84.7261 317° Northwest  Level Estimated
02:58PM 21.0787 84.6309 317° Northwest  Level Estimated
02:59PM 21.1727 84.5357 317° Northwest  Level Estimated
03:00PM 21.2665 84.4403 317° Northwest  Level Estimated
03:01PM 21.3604 84.3447 317° Northwest  Level Estimated
03:02PM 21.4541 84.2491 317° Northwest  Level Estimated
03:03PM 21.5479 84.1534 316° Northwest  Level Estimated
03:04PM 21.6415 84.0575 316° Northwest  Level Estimated
03:05PM 21.7351 83.9615 316° Northwest  Level Estimated
03:06PM 21.8287 83.8653 316° Northwest  Level Estimated
03:07PM 21.9222 83.7691 316° Northwest  Level Estimated
03:08PM 22.0156 83.6727 316° Northwest  Level Estimated
03:09PM 22.1090 83.5762 316° Northwest  Level Estimated
03:10PM 22.2023 83.4795 316° Northwest  Level Estimated
03:11PM 22.2956 83.3828 316° Northwest  Level Estimated
03:12PM 22.3888 83.2859 316° Northwest  Level Estimated
03:13PM 22.4820 83.1888 316° Northwest  Level Estimated
03:14PM 22.5751 83.0917 316° Northwest  Level Estimated
03:15PM 22.6681 82.9944 316° Northwest  Level Estimated
03:16PM 22.7611 82.8970 316° Northwest  Level Estimated
03:17PM 22.8540 82.7994 316° Northwest  Level Estimated
03:18PM 22.9469 82.7017 316° Northwest  Level Estimated
03:19PM 23.0397 82.6039 316° Northwest  Level Estimated
03:20PM 23.1324 82.5059 316° Northwest  Level Estimated
03:21PM 23.2251 82.4078 316° Northwest  Level Estimated
03:22PM 23.3177 82.3096 316° Northwest  Level Estimated
03:23PM 23.4103 82.2112 316° Northwest  Level Estimated
03:24PM 23.5028 82.1127 316° Northwest  Level Estimated
03:25PM 23.5952 82.0141 316° Northwest  Level Estimated
03:26PM 23.6876 81.9153 316° Northwest  Level Estimated
03:27PM 23.7799 81.8164 316° Northwest  Level Estimated
03:28PM 23.8721 81.7173 316° Northwest  Level Estimated
03:29PM 23.9643 81.6181 315° West  Level Estimated
03:30PM 24.0564 81.5188 315° West  Level Estimated
03:31PM 24.1485 81.4193 315° West  Level Estimated
03:32PM 24.2405 81.3197 315° West  Level Estimated
03:33PM 24.3324 81.2199 315° West  Level Estimated
03:34PM 24.4242 81.1200 315° West  Level Estimated
03:35PM 24.5160 81.0199 315° West  Level Estimated
03:36PM 24.6078 80.9197 315° West  Level Estimated
03:37PM 24.6994 80.8193 315° West  Level Estimated
03:38PM 24.7910 80.7188 315° West  Level Estimated
03:39PM 24.8825 80.6182 315° West  Level Estimated
03:40PM 24.9740 80.5174 315° West  Level Estimated
03:41PM 25.0654 80.4164 315° West  Level Estimated
03:42PM 25.1567 80.3153 315° West  Level Estimated
03:43PM 25.2480 80.2140 315° West  Level Estimated
03:44PM 25.3391 80.1126 315° West  Level Estimated
03:45PM 25.4303 80.0111 315° West  Level Estimated
03:46PM 25.5213 79.9093 315° West  Level Estimated
03:47PM 25.6123 79.8075 315° West  Level Estimated
03:48PM 25.7032 79.7055 315° West  Level Estimated
03:49PM 25.7940 79.6033 315° West  Level Estimated
03:50PM 25.8848 79.5009 315° West  Level Estimated
03:51PM 25.9755 79.3984 315° West  Level Estimated
03:52PM 26.0661 79.2958 315° West  Level Estimated
03:53PM 26.1566 79.1930 314° West  Level Estimated
03:54PM 26.2471 79.0900 314° West  Level Estimated
03:55PM 26.3375 78.9869 314° West  Level Estimated
03:56PM 26.4278 78.8836 314° West  Level Estimated
03:57PM 26.5181 78.7801 314° West  Level Estimated
03:58PM 26.6082 78.6765 314° West  Level Estimated
03:59PM 26.6984 78.5727 314° West  Level Estimated
04:00PM 26.7884 78.4688 314° West  Level Estimated
04:01PM 26.8783 78.3647 314° West  Level Estimated
04:02PM 26.9682 78.2604 314° West  Level Estimated
04:03PM 27.0580 78.1560 314° West  Level Estimated
04:04PM 27.1477 78.0513 314° West  Level Estimated
04:05PM 27.2374 77.9466 314° West  Level Estimated
04:06PM 27.3269 77.8416 314° West  Level Estimated
04:07PM 27.4164 77.7365 314° West  Level Estimated
04:08PM 27.5058 77.6312 314° West  Level Estimated
04:09PM 27.5951 77.5257 314° West  Level Estimated
04:10PM 27.6844 77.4201 314° West  Level Estimated
04:11PM 27.7735 77.3143 314° West  Level Estimated
04:12PM 27.8626 77.2083 314° West  Level Estimated
04:13PM 27.9516 77.1022 314° West  Level Estimated
04:14PM 28.0405 76.9958 313° West  Level Estimated
04:15PM 28.1294 76.8894 313° West  Level Estimated
04:16PM 28.2181 76.7827 313° West  Level Estimated
04:17PM 28.3068 76.6758 313° West  Level Estimated
04:18PM 28.3954 76.5688 313° West  Level Estimated
04:19PM 28.4839 76.4616 313° West  Level Estimated
04:20PM 28.5723 76.3542 313° West  Level Estimated
04:21PM 28.6607 76.2466 313° West  Level Estimated
04:22PM 28.7489 76.1389 313° West  Level Estimated
04:23PM 28.8371 76.0309 313° West  Level Estimated
04:24PM 28.9252 75.9228 313° West  Level Estimated
04:25PM 29.0132 75.8145 313° West  Level Estimated
04:26PM 29.1011 75.7060 313° West  Level Estimated
04:27PM 29.1889 75.5973 313° West  Level Estimated
04:28PM 29.2766 75.4885 313° West  Level Estimated
04:29PM 29.3643 75.3794 313° West  Level Estimated
04:30PM 29.4518 75.2702 313° West  Level Estimated
04:31PM 29.5393 75.1608 313° West  Level Estimated
04:32PM 29.6267 75.0512 313° West  Level Estimated
04:33PM 29.7140 74.9414 312° West  Level Estimated
04:34PM 29.8012 74.8314 312° West  Level Estimated
04:35PM 29.8883 74.7212 312° West  Level Estimated
04:36PM 29.9753 74.6108 312° West  Level Estimated
04:37PM 30.0622 74.5002 312° West  Level Estimated
04:38PM 30.1490 74.3895 312° West  Level Estimated
04:39PM 30.2358 74.2785 312° West  Level Estimated
04:40PM 30.3224 74.1674 312° West  Level Estimated
04:41PM 30.4090 74.0560 312° West  Level Estimated
04:42PM 30.4954 73.9445 312° West  Level Estimated
04:43PM 30.5818 73.8327 312° West  Level Estimated
04:44PM 30.6680 73.7207 312° West  Level Estimated
04:45PM 30.7542 73.6086 312° West  Level Estimated
04:46PM 30.8403 73.4962 312° West  Level Estimated
04:47PM 30.9262 73.3837 312° West  Level Estimated
04:48PM 31.0121 73.2710 312° West  Level Estimated
04:49PM 31.0979 73.1580 312° West  Level Estimated
04:50PM 31.1836 73.0448 312° West  Level Estimated
04:51PM 31.2691 72.9315 311° West  Level Estimated
04:52PM 31.3546 72.8179 311° West  Level Estimated
04:53PM 31.4400 72.7041 311° West  Level Estimated
04:54PM 31.5253 72.5901 311° West  Level Estimated
04:55PM 31.6105 72.4760 311° West  Level Estimated
04:56PM 31.6955 72.3615 311° West  Level Estimated
04:57PM 31.7805 72.2469 311° West  Level Estimated
04:58PM 31.8654 72.1321 311° West  Level Estimated
04:59PM 31.9501 72.0171 311° West  Level Estimated
05:00PM 32.0348 71.9018 311° West  Level Estimated
05:01PM 32.1194 71.7864 311° West  Level Estimated
05:02PM 32.2038 71.6707 311° West  Level Estimated
05:03PM 32.2882 71.5548 311° West  Level Estimated
05:04PM 32.3724 71.4387 311° West  Level Estimated
05:05PM 32.4565 71.3224 311° West  Level Estimated
05:06PM 32.5406 71.2059 311° West  Level Estimated
05:07PM 32.6245 71.0891 310° West  Level Estimated
05:08PM 32.7083 70.9721 310° West  Level Estimated
05:09PM 32.7920 70.8549 310° West  Level Estimated
05:10PM 32.8756 70.7375 310° West  Level Estimated
05:11PM 32.9591 70.6199 310° West  Level Estimated
05:12PM 33.0424 70.5020 310° West  Level Estimated
05:13PM 33.1257 70.3839 310° West  Level Estimated
05:14PM 33.2088 70.2656 310° West  Level Estimated
05:15PM 33.2919 70.1471 310° West  Level Estimated
05:16PM 33.3748 70.0283 310° West  Level Estimated
05:17PM 33.4576 69.9094 310° West  Level Estimated
05:18PM 33.5403 69.7902 310° West  Level Estimated
05:19PM 33.6229 69.6707 310° West  Level Estimated
05:20PM 33.7054 69.5510 310° West  Level Estimated
05:21PM 33.7877 69.4311 310° West  Level Estimated
05:22PM 33.8700 69.3110 310° West  Level Estimated
05:23PM 33.9521 69.1907 309° West  Level Estimated
05:24PM 34.0341 69.0701 309° West  Level Estimated
05:25PM 34.1160 68.9492 309° West  Level Estimated
05:26PM 34.1977 68.8282 309° West  Level Estimated
05:27PM 34.2794 68.7069 309° West  Level Estimated
05:28PM 34.3609 68.5854 309° West  Level Estimated
05:29PM 34.4423 68.4636 309° West  Level Estimated
05:30PM 34.5236 68.3416 309° West  Level Estimated
05:31PM 34.6048 68.2193 309° West  Level Estimated
05:32PM 34.6858 68.0969 309° West  Level Estimated
05:33PM 34.7667 67.9741 309° West  Level Estimated
05:34PM 34.8475 67.8512 309° West  Level Estimated
05:35PM 34.9282 67.7280 309° West  Level Estimated
05:36PM 35.0088 67.6045 309° West  Level Estimated
05:37PM 35.0892 67.4808 308° West  Level Estimated
05:38PM 35.1695 67.3569 308° West  Level Estimated
05:39PM 35.2496 67.2327 308° West  Level Estimated
05:40PM 35.3297 67.1083 308° West  Level Estimated
05:41PM 35.4096 66.9836 308° West  Level Estimated
05:42PM 35.4894 66.8587 308° West  Level Estimated
05:43PM 35.5690 66.7336 308° West  Level Estimated
05:44PM 35.6486 66.6081 308° West  Level Estimated
05:45PM 35.7280 66.4825 308° West  Level Estimated
05:46PM 35.8073 66.3566 308° West  Level Estimated
05:47PM 35.8864 66.2304 308° West  Level Estimated
05:48PM 35.9654 66.1040 308° West  Level Estimated
05:49PM 36.0443 65.9773 308° West  Level Estimated
05:50PM 36.1230 65.8504 308° West  Level Estimated
05:51PM 36.2016 65.7232 307° West  Level Estimated
05:52PM 36.2801 65.5958 307° West  Level Estimated
05:53PM 36.3584 65.4681 307° West  Level Estimated
05:54PM 36.4366 65.3401 307° West  Level Estimated
05:55PM 36.5147 65.2119 307° West  Level Estimated
05:56PM 36.5926 65.0835 307° West  Level Estimated
05:57PM 36.6704 64.9548 307° West  Level Estimated
05:58PM 36.7480 64.8258 307° West  Level Estimated
05:59PM 36.8255 64.6965 307° West  Level Estimated
06:00PM 36.9029 64.5670 307° West  Level Estimated
06:01PM 36.9801 64.4372 307° West  Level Estimated
06:02PM 37.0572 64.3072 307° West  Level Estimated
06:03PM 37.1341 64.1769 307° West  Level Estimated
06:04PM 37.2109 64.0464 306° West  Level Estimated
06:05PM 37.2876 63.9155 306° West  Level Estimated
06:06PM 37.3641 63.7844 306° West  Level Estimated
06:07PM 37.4405 63.6531 306° West  Level Estimated
06:08PM 37.5167 63.5215 306° West  Level Estimated
06:09PM 37.5928 63.3895 306° West  Level Estimated
06:10PM 37.6687 63.2574 306° West  Level Estimated
06:11PM 37.7445 63.1249 306° West  Level Estimated
06:12PM 37.8201 62.9922 306° West  Level Estimated
06:13PM 37.8956 62.8592 306° West  Level Estimated
06:14PM 37.9709 62.7260 306° West  Level Estimated
06:15PM 38.0461 62.5925 306° West  Level Estimated
06:16PM 38.1211 62.4587 306° West  Level Estimated
06:17PM 38.1960 62.3246 305° West  Level Estimated
06:18PM 38.2707 62.1902 305° West  Level Estimated
06:19PM 38.3453 62.0556 305° West  Level Estimated
06:20PM 38.4197 61.9207 305° West  Level Estimated
06:21PM 38.4940 61.7855 305° West  Level Estimated
06:22PM 38.5681 61.6500 305° West  Level Estimated
06:23PM 38.6420 61.5143 305° West  Level Estimated
06:24PM 38.7158 61.3783 305° West  Level Estimated
06:25PM 38.7894 61.2420 305° West  Level Estimated
06:26PM 38.8629 61.1054 305° West  Level Estimated
06:27PM 38.9362 60.9685 305° West  Level Estimated
06:28PM 39.0094 60.8314 304° West  Level Estimated
06:29PM 39.0824 60.6939 304° West  Level Estimated
06:30PM 39.1552 60.5562 304° West  Level Estimated
06:31PM 39.2279 60.4182 304° West  Level Estimated
06:32PM 39.3004 60.2799 304° West  Level Estimated
06:33PM 39.3727 60.1413 304° West  Level Estimated
06:34PM 39.4449 60.0025 304° West  Level Estimated
06:35PM 39.5169 59.8633 304° West  Level Estimated
06:36PM 39.5888 59.7239 304° West  Level Estimated
06:37PM 39.6605 59.5842 304° West  Level Estimated
06:38PM 39.7320 59.4441 304° West  Level Estimated
06:39PM 39.8033 59.3038 304° West  Level Estimated
06:40PM 39.8745 59.1632 303° West  Level Estimated
06:41PM 39.9455 59.0223 303° West  Level Estimated
06:42PM 40.0163 58.8812 303° West  Level Estimated
06:43PM 40.0870 58.7397 303° West  Level Estimated
06:44PM 40.1575 58.5979 303° West  Level Estimated
06:45PM 40.2278 58.4558 303° West  Level Estimated
06:46PM 40.2979 58.3135 303° West  Level Estimated
06:47PM 40.3679 58.1708 303° West  Level Estimated
06:48PM 40.4377 58.0279 303° West  Level Estimated
06:49PM 40.5073 57.8846 303° West  Level Estimated
06:50PM 40.5767 57.7411 303° West  Level Estimated
06:51PM 40.6460 57.5972 302° West  Level Estimated
06:52PM 40.7151 57.4531 302° West  Level Estimated
06:53PM 40.7840 57.3087 302° West  Level Estimated
06:54PM 40.8527 57.1639 302° West  Level Estimated
06:55PM 40.9212 57.0189 302° West  Level Estimated
06:56PM 40.9896 56.8735 302° West  Level Estimated
06:57PM 41.0578 56.7279 302° West  Level Estimated
06:58PM 41.1258 56.5819 302° West  Level Estimated
06:59PM 41.1936 56.4357 302° West  Level Estimated
07:00PM 41.2612 56.2891 302° West  Level Estimated
07:01PM 41.3286 56.1423 301° West  Level Estimated
07:02PM 41.3959 55.9951 301° West  Level Estimated
07:03PM 41.4629 55.8477 301° West  Level Estimated
07:04PM 41.5298 55.6999 301° West  Level Estimated
07:05PM 41.5965 55.5518 301° West  Level Estimated
07:06PM 41.6630 55.4035 301° West  Level Estimated
07:07PM 41.7293 55.2548 301° West  Level Estimated
07:08PM 41.7954 55.1058 301° West  Level Estimated
07:09PM 41.8613 54.9565 301° West  Level Estimated
07:10PM 41.9270 54.8069 301° West  Level Estimated
07:11PM 41.9925 54.6570 300° West  Level Estimated
07:12PM 42.0579 54.5067 300° West  Level Estimated
07:13PM 42.1230 54.3562 300° West  Level Estimated
07:14PM 42.1879 54.2054 300° West  Level Estimated
07:15PM 42.2527 54.0542 300° West  Level Estimated
07:16PM 42.3172 53.9028 300° West  Level Estimated
07:17PM 42.3816 53.7510 300° West  Level Estimated
07:18PM 42.4457 53.5989 300° West  Level Estimated
07:19PM 42.5096 53.4465 300° West  Level Estimated
07:20PM 42.5734 53.2938 300° West  Level Estimated
07:21PM 42.6369 53.1408 299° West  Level Estimated
07:22PM 42.7002 52.9875 299° West  Level Estimated
07:23PM 42.7634 52.8338 299° West  Level Estimated
07:24PM 42.8263 52.6799 299° West  Level Estimated
07:25PM 42.8890 52.5256 299° West  Level Estimated
07:26PM 42.9515 52.3710 299° West  Level Estimated
07:27PM 43.0138 52.2161 299° West  Level Estimated
07:28PM 43.0759 52.0609 299° West  Level Estimated
07:29PM 43.1378 51.9054 299° West  Level Estimated
07:30PM 43.1994 51.7495 299° West  Level Estimated
07:31PM 43.2609 51.5934 298° West  Level Estimated
07:32PM 43.3221 51.4369 298° West  Level Estimated
07:33PM 43.3831 51.2802 298° West  Level Estimated
07:34PM 43.4440 51.1231 298° West  Level Estimated
07:35PM 43.5046 50.9656 298° West  Level Estimated
07:36PM 43.5649 50.8079 298° West  Level Estimated
07:37PM 43.6251 50.6499 298° West  Level Estimated
07:38PM 43.6851 50.4915 298° West  Level Estimated
07:39PM 43.7448 50.3328 298° West  Level Estimated
07:40PM 43.8043 50.1738 297° West  Level Estimated
07:41PM 43.8636 50.0145 297° West  Level Estimated
07:42PM 43.9226 49.8549 297° West  Level Estimated
07:43PM 43.9815 49.6950 297° West  Level Estimated
07:44PM 44.0401 49.5347 297° West  Level Estimated
07:45PM 44.0985 49.3741 297° West  Level Estimated
07:46PM 44.1567 49.2132 297° West  Level Estimated
07:47PM 44.2146 49.0520 297° West  Level Estimated
07:48PM 44.2723 48.8905 297° West  Level Estimated
07:49PM 44.3298 48.7286 296° West  Level Estimated
07:50PM 44.3871 48.5665 296° West  Level Estimated
07:51PM 44.4441 48.4040 296° West  Level Estimated
07:52PM 44.5009 48.2412 296° West  Level Estimated
07:53PM 44.5574 48.0781 296° West  Level Estimated
07:54PM 44.6138 47.9146 296° West  Level Estimated
07:55PM 44.6699 47.7509 296° West  Level Estimated
07:56PM 44.7257 47.5868 296° West  Level Estimated
07:57PM 44.7814 47.4225 296° West  Level Estimated
07:58PM 44.8368 47.2578 295° West  Level Estimated
07:59PM 44.8919 47.0928 295° West  Level Estimated
08:00PM 44.9468 46.9274 295° West  Level Estimated
08:01PM 45.0015 46.7618 295° West  Level Estimated
08:02PM 45.0560 46.5958 295° West  Level Estimated
08:03PM 45.1102 46.4295 295° West  Level Estimated
08:04PM 45.1641 46.2630 295° West  Level Estimated
08:05PM 45.2178 46.0960 295° West  Level Estimated
08:06PM 45.2713 45.9288 294° West  Level Estimated
08:07PM 45.3245 45.7613 294° West  Level Estimated
08:08PM 45.3775 45.5934 294° West  Level Estimated
08:08PM 43.6630 45.6090 294° West 494 568 36,000  Level FlightAware
08:09PM 45.4302 45.4253 294° West  Level Estimated
08:09PM 43.6990 45.5140 298° West 494 568 36,000  Level FlightAware
08:10PM 43.7360 45.4190 298° West 494 568 36,000  Level FlightAware
08:11PM 43.6630 45.6090 118° Southeast 493 567 36,000  Level FlightAware
08:12PM 43.8770 45.0710 299° West 489 563 36,000  Level FlightAware
08:12PM 43.9230 44.9530 298° West 489 563 36,000  Level FlightAware
08:13PM 43.9680 44.8360 298° West 488 562 36,000  Level FlightAware
08:14PM 44.0230 44.6940 298° West 487 560 36,000  Level FlightAware
08:15PM 44.0700 44.5740 299° West 488 562 36,000  Level FlightAware
08:16PM 44.1350 44.4190 300° West 489 563 36,000  Level FlightAware
08:17PM 44.1970 44.2710 300° West 492 566 36,000  Level FlightAware
08:17PM 44.2450 44.1570 300° West 491 565 36,000  Level FlightAware
08:18PM 44.2970 44.0300 300° West 488 562 36,000  Level FlightAware
08:19PM 44.3370 43.9340 300° West 487 560 36,000  Level FlightAware
08:19PM 44.3900 43.8040 300° West 487 560 36,000  Level FlightAware
08:20PM 44.4390 43.6840 300° West 487 560 36,000  Level FlightAware
08:21PM 44.4880 43.5650 300° West 484 557 36,000  Level FlightAware
08:21PM 44.5340 43.4520 300° West 482 555 36,000  Level FlightAware
08:22PM 44.5700 43.3670 301° West 481 554 36,000  Level FlightAware
08:23PM 44.6300 43.2250 301° West 479 551 36,000  Level FlightAware
08:24PM 44.6700 43.1310 301° West 482 555 36,000  Level FlightAware
08:24PM 44.7180 43.0150 300° West 484 557 36,000  Level FlightAware
08:25PM 44.7720 42.8890 301° West 483 556 36,000  Level FlightAware
08:26PM 44.8180 42.7870 302° West 481 554 36,000  Level FlightAware
08:26PM 44.8710 42.6650 302° West 484 557 36,000  Level FlightAware
08:27PM 44.9360 42.5140 301° West 490 564 36,000  Level FlightAware
08:28PM 44.9710 42.4350 302° West 490 564 36,000  Level FlightAware
08:29PM 45.0190 42.3220 301° West 490 564 36,000  Level FlightAware
08:29PM 45.0710 42.2020 302° West 488 562 36,000  Level FlightAware
08:30PM 45.1260 42.0670 300° West 487 560 36,000  Level FlightAware
08:31PM 45.1670 41.9500 296° West 487 560 36,000  Level FlightAware
08:31PM 45.2030 41.8470 296° West 485 558 36,000  Level FlightAware
08:32PM 45.2510 41.7080 296° West 487 560 36,000  Level FlightAware
08:33PM 45.2920 41.5920 297° West 489 563 36,000  Level FlightAware
08:34PM 45.3330 41.4730 296° West 490 564 36,000  Level FlightAware
08:34PM 45.3810 41.3500 299° West 489 563 36,000  Level FlightAware
08:35PM 45.4240 41.2370 298° West 492 566 36,000  Level FlightAware
08:36PM 45.4690 41.1200 299° West 493 567 36,000  Level FlightAware
08:36PM 45.5130 41.0040 298° West 491 565 36,000  Level FlightAware
08:37PM 45.5570 40.8880 298° West 490 564 36,000  Level FlightAware
08:38PM 45.5960 40.7840 298° West 492 566 36,000  Level FlightAware
08:39PM 45.6650 40.5980 298° West 493 567 36,000  Level FlightAware
08:39PM 45.7170 40.4580 298° West 493 567 36,000  Level FlightAware
08:40PM 45.7560 40.3530 298° West 494 568 36,000  Level FlightAware
08:41PM 45.7990 40.2350 298° West 494 568 36,000  Level FlightAware
08:41PM 45.8410 40.1210 298° West 496 571 36,000  Level FlightAware
08:42PM 45.8800 39.9960 294° West 497 572 36,000  Level FlightAware
08:43PM 45.9210 39.8590 293° West 493 567 36,000  Level FlightAware
08:44PM 45.9550 39.7420 293° West 495 570 36,000  Level FlightAware
08:44PM 45.9960 39.6010 293° West 497 572 36,000  Level FlightAware
08:45PM 46.0330 39.4770 293° West 495 570 36,000  Level FlightAware
08:46PM 46.0670 39.3590 293° West 497 572 36,000  Level FlightAware
08:46PM 46.1110 39.2060 293° West 499 574 36,000  Level FlightAware
08:47PM 46.1580 39.0430 293° West 503 579 36,000  Level FlightAware
08:48PM 46.1940 38.9150 292° West 504 580 36,000  Level FlightAware
08:49PM 46.2340 38.7920 295° West 501 577 36,000  Level FlightAware
08:49PM 46.2770 38.6600 295° West 500 575 36,000  Level FlightAware
08:50PM 46.3170 38.5330 295° West 499 574 36,000  Level FlightAware
08:51PM 46.3560 38.4080 294° West 501 577 36,000  Level FlightAware
08:51PM 46.3950 38.2830 294° West 504 580 36,000  Level FlightAware
08:52PM 46.4300 38.1710 294° West 505 581 36,000  Level FlightAware
08:53PM 46.4680 38.0450 294° West 505 581 36,000  Level FlightAware
08:54PM 46.5110 37.9060 294° West 505 581 36,000  Level FlightAware
08:54PM 46.5580 37.7550 294° West 506 582 36,000  Level FlightAware
08:55PM 46.5920 37.6430 294° West 505 581 36,000  Level FlightAware
08:56PM 46.6390 37.4870 294° West 504 580 36,000  Level FlightAware
08:57PM 46.6940 37.3260 297° West 506 582 36,000  Level FlightAware
08:57PM 46.7480 37.1800 298° West 504 580 36,000  Level FlightAware
08:58PM 46.7850 37.0810 299° West 503 579 36,000  Level FlightAware
08:59PM 46.8370 36.9370 298° West 505 581 36,000  Level FlightAware
09:00PM 46.8820 36.8130 298° West 506 582 36,000  Level FlightAware
09:00PM 46.9270 36.6900 298° West 507 583 36,000  Level FlightAware
09:01PM 46.9720 36.5650 298° West 508 585 36,000  Level FlightAware
09:02PM 47.0100 36.4580 298° West 511 588 36,000  Level FlightAware
09:02PM 47.0700 36.2920 298° West 516 594 36,000  Level FlightAware
09:03PM 47.1190 36.1520 297° West 518 596 36,000  Level FlightAware
09:04PM 47.1640 36.0260 298° West 518 596 36,000  Level FlightAware
09:04PM 47.2120 35.8910 298° West 519 597 36,000  Level FlightAware
09:05PM 47.2570 35.7600 297° West 520 598 36,000  Level FlightAware
09:06PM 47.3010 35.6230 295° West 523 602 36,000  Level FlightAware
09:07PM 47.3430 35.4850 294° West 525 604 36,000  Level FlightAware
09:07PM 47.3840 35.3560 295° West 525 604 36,000  Level FlightAware
09:08PM 47.4240 35.2280 295° West 525 604 36,000  Level FlightAware
09:09PM 47.4660 35.0920 295° West 526 605 36,000  Level FlightAware
09:09PM 47.5110 34.9460 295° West 524 603 36,000  Level FlightAware
09:10PM 47.5510 34.8170 295° West 518 596 36,000  Level FlightAware
09:11PM 47.5750 34.7390 295° West 518 596 36,000  Level FlightAware
09:12PM 47.6310 34.5520 294° West 518 596 36,000  Level FlightAware
09:12PM 47.6730 34.4110 294° West 518 596 36,000  Level FlightAware
09:13PM 47.7080 34.2950 294° West 518 596 36,000  Level FlightAware
09:14PM 47.8130 33.9470 294° West 520 598 36,000  Level FlightAware
09:15PM 47.8610 33.7840 294° West 518 596 36,000  Level FlightAware
09:16PM 47.9090 33.6180 293° West 516 594 36,000  Level FlightAware
09:17PM 47.9700 33.4070 293° West 520 598 36,000  Level FlightAware
09:18PM 48.0080 33.2750 293° West 524 603 36,000  Level FlightAware
09:19PM 48.0490 33.1330 293° West 526 605 36,000  Level FlightAware
09:19PM 48.0920 32.9830 293° West 527 606 36,000  Level FlightAware
09:20PM 48.1270 32.8560 292° West 527 606 36,000  Level FlightAware
09:21PM 48.1620 32.7020 289° West 525 604 36,000  Level FlightAware
09:21PM 48.1960 32.5560 289° West 524 603 36,000  Level FlightAware
09:22PM 48.2230 32.4390 289° West 523 602 36,000  Level FlightAware
09:23PM 48.2600 32.2780 289° West 525 604 36,000  Level FlightAware
09:23PM 48.2830 32.1660 287° West 524 603 36,000  Level FlightAware
09:24PM 48.3300 31.9670 290° West 524 603 36,000  Level FlightAware
09:25PM 48.3610 31.8300 289° West 526 605 36,000  Level FlightAware
09:26PM 48.3980 31.6610 288° West 524 603 36,000  Level FlightAware
09:26PM 48.4230 31.5430 288° West 524 603 36,000  Level FlightAware
09:28PM 48.4960 31.2070 288° West 525 604 36,000  Level FlightAware
09:29PM 48.5200 31.0880 287° West 525 604 36,000  Level FlightAware
09:29PM 48.5440 30.9690 287° West 525 604 36,000  Level FlightAware
09:30PM 48.5880 30.7700 289° West 523 602 36,000  Level FlightAware
09:31PM 48.6170 30.6270 287° West 523 602 36,000  Level FlightAware
09:31PM 48.6410 30.5080 287° West 523 602 36,000  Level FlightAware
09:33PM 48.7170 30.1340 287° West 524 603 36,000  Level FlightAware
09:34PM 48.7400 30.0130 286° West 524 603 36,000  Level FlightAware
09:34PM 48.7620 29.8930 286° West 524 603 36,000  Level FlightAware
09:35PM 48.8060 29.6890 288° West 516 594 36,000  Level FlightAware
09:36PM 48.8330 29.5470 286° West 516 594 36,000  Level FlightAware
09:37PM 48.8630 29.3940 287° West 511 588 36,000  Level FlightAware
09:37PM 48.8860 29.2740 286° West 511 588 36,000  Level FlightAware
09:38PM 48.9090 29.1500 286° West 511 588 36,000  Level FlightAware
09:39PM 48.9520 28.9150 286° West 511 588 36,000  Level FlightAware
09:41PM 49.0450 28.4270 282° West 504 580 36,000 120 Level FlightAware
09:42PM 49.0122 28.4913 282° West  Level Estimated
09:44PM 49.1020 28.0083 282° West  Level Estimated
09:45PM 49.1278 27.8147 282° West  Level Estimated
09:46PM 49.1533 27.6209 281° West  Level Estimated
09:47PM 49.1785 27.4269 281° West  Level Estimated
09:48PM 49.2033 27.2327 281° West  Level Estimated
09:49PM 49.2278 27.0384 281° West  Level Estimated
09:50PM 49.2520 26.8438 281° West  Level Estimated
09:51PM 49.2758 26.6491 281° West  Level Estimated
09:52PM 49.2994 26.4541 281° West  Level Estimated
09:53PM 49.3226 26.2590 280° West  Level Estimated
09:54PM 49.3454 26.0637 280° West  Level Estimated
09:55PM 49.3680 25.8682 280° West  Level Estimated
09:55PM 49.5030 25.5430 280° West 495 570 38,000  Level FlightAware
09:56PM 49.5160 25.3980 278° West 500 575 38,000  Level FlightAware
09:57PM 49.5290 25.2560 278° West 501 577 38,000  Level FlightAware
09:57PM 49.5410 25.1160 278° West 497 572 38,000  Level FlightAware
09:58PM 49.5540 24.9760 278° West 496 571 38,000  Level FlightAware
09:59PM 49.5670 24.8160 277° West 493 567 38,000  Level FlightAware
10:00PM 49.5810 24.6570 278° West 494 568 38,000  Level FlightAware
10:00PM 49.5890 24.5590 277° West 494 568 38,000  Level FlightAware
10:02PM 49.6160 24.2270 277° West 495 570 38,000  Level FlightAware
10:02PM 49.6250 24.1080 277° West 494 568 38,000  Level FlightAware
10:03PM 49.6390 23.9260 277° West 492 566 38,000  Level FlightAware
10:04PM 49.6510 23.7790 277° West 494 568 38,000  Level FlightAware
10:04PM 49.6610 23.6430 277° West 490 564 38,000  Level FlightAware
10:05PM 49.6720 23.4890 276° West 491 565 38,000  Level FlightAware
10:06PM 49.6820 23.3500 276° West 491 565 38,000  Level FlightAware
10:06PM 49.6900 23.2400 276° West 491 565 38,000  Level FlightAware
10:07PM 49.7020 23.0660 276° West 491 565 38,000  Level FlightAware
10:08PM 49.7120 22.9260 276° West 492 566 38,000  Level FlightAware
10:08PM 49.7210 22.7890 276° West 488 562 38,000  Level FlightAware
10:11PM 49.7539 22.3854 277° West  Level Estimated
10:12PM 49.7696 22.1867 277° West  Level Estimated
10:12PM 49.7670 22.0690 277° West 487 560 38,000  Level FlightAware
10:13PM 49.7790 21.8610 275° West 485 558 38,000  Level FlightAware
10:14PM 49.7870 21.7330 276° West 482 555 38,000  Level FlightAware
10:14PM 49.7950 21.5900 275° West 479 551 38,000  Level FlightAware
10:15PM 49.8040 21.4380 275° West 481 554 38,000  Level FlightAware
10:16PM 49.8110 21.3080 275° West 481 554 38,000  Level FlightAware
10:18PM 49.8361 20.9527 276° West  Level Estimated
10:19PM 49.8497 20.7533 276° West  Level Estimated
10:19PM 49.8490 20.5430 276° West 489 563 38,000  Level FlightAware
10:22PM 49.8768 20.1139 276° West  Level Estimated
10:23PM 49.8893 19.9141 276° West  Level Estimated
10:24PM 49.9013 19.7143 275° West  Level Estimated
10:25PM 49.9130 19.5143 275° West  Level Estimated
10:25PM 49.8990 19.3720 275° West 476 548 38,000  Level FlightAware
10:26PM 49.9030 19.2580 273° West 474 545 38,000  Level FlightAware
10:27PM 49.9100 19.0550 273° West 467 537 38,000  Level FlightAware
10:28PM 49.9170 18.8350 273° West 468 539 38,000  Level FlightAware
10:28PM 49.9220 18.7020 273° West 469 540 38,000  Level FlightAware
10:29PM 49.9250 18.5940 273° West 468 539 38,000  Level FlightAware
10:30PM 49.9300 18.4130 273° West 469 540 38,000  Level FlightAware
10:30PM 49.9330 18.3050 273° West 468 539 38,000  Level FlightAware
10:31PM 49.9330 18.1780 270° West 470 541 38,000  Level FlightAware
10:32PM 49.9390 17.9160 272° West 462 532 38,000  Level FlightAware
10:33PM 49.9520 17.7000 275° West 463 533 38,000  Level FlightAware
10:34PM 49.9620 17.5200 275° West 465 535 38,000  Level FlightAware
10:35PM 49.9690 17.3840 275° West 466 536 38,000  Level FlightAware
10:36PM 49.9800 17.1850 275° West 465 535 38,000  Level FlightAware
10:37PM 49.9920 16.9590 275° West 466 536 38,000  Level FlightAware
10:38PM 49.9970 16.8440 274° West 465 535 38,000  Level FlightAware
10:38PM 50.0040 16.7120 275° West 466 536 38,000  Level FlightAware
10:39PM 50.0100 16.5770 274° West 464 534 38,000  Level FlightAware
10:40PM 50.0170 16.4310 274° West 461 531 38,000  Level FlightAware
10:40PM 50.0240 16.2930 275° West 463 533 38,000  Level FlightAware
10:41PM 50.0290 16.1790 274° West 460 529 38,000  Level FlightAware
10:42PM 50.0350 16.0310 274° West 457 526 38,000  Level FlightAware
10:42PM 50.0400 15.9030 274° West 458 527 38,000  Level FlightAware
10:43PM 50.0460 15.7600 274° West 459 528 38,000  Level FlightAware
10:44PM 50.0490 15.6810 273° West 458 527 38,000  Level FlightAware
10:44PM 50.0550 15.5350 274° West 457 526 38,000  Level FlightAware
10:45PM 50.0600 15.3910 273° West 457 526 38,000  Level FlightAware
10:46PM 50.0650 15.2600 273° West 456 525 38,000  Level FlightAware
10:46PM 50.0700 15.1110 273° West 449 517 38,000  Level FlightAware
10:47PM 50.0750 14.9830 274° West 446 513 38,000  Level FlightAware
10:48PM 50.0790 14.8710 273° West 444 511 38,000  Level FlightAware
10:48PM 50.0820 14.7620 272° West 446 513 38,000  Level FlightAware
10:49PM 50.0860 14.6370 273° West 450 518 38,000  Level FlightAware
10:50PM 50.0900 14.4890 272° West 450 518 38,000  Level FlightAware
10:50PM 50.0940 14.3720 273° West 449 517 38,000  Level FlightAware
10:51PM 50.0970 14.2140 272° West 446 513 38,000  Level FlightAware
10:52PM 50.0970 14.0950 270° West 445 512 38,000  Level FlightAware
10:52PM 50.0970 13.9600 270° West 446 513 38,000  Level FlightAware
10:53PM 50.0970 13.8200 270° West 448 516 38,000  Level FlightAware
10:54PM 50.0970 13.7060 270° West 449 517 38,000  Level FlightAware
10:55PM 50.0980 13.5370 271° West 457 526 38,000  Level FlightAware
10:55PM 50.0970 13.4130 269° West 456 525 38,000 -480 Level FlightAware
10:56PM 50.0960 13.2620 269° West 446 513 37,400 -1,140 Descending FlightAware
10:57PM 50.0940 13.1360 269° West 432 497 36,400 -1,500 Descending FlightAware
10:57PM 50.0930 13.0100 269° West 443 510 35,400 -1,500 Descending FlightAware
10:58PM 50.0950 12.8660 271° West 461 531 34,300 -1,380 Descending FlightAware
10:59PM 50.0950 12.7040 270° West 458 527 33,100 -1,500 Descending FlightAware
11:00PM 50.0950 12.5550 270° West 462 532 32,000 -1,860 Descending FlightAware
11:00PM 50.0950 12.4040 270° West 470 541 30,500 -1,980 Descending FlightAware
11:01PM 50.0970 12.2680 271° West 467 537 29,200 -1,080 Descending FlightAware
11:02PM 50.0990 12.1180 271° West 466 536 29,000 -180 Descending FlightAware
11:03PM 50.1200 11.9870 284° West 464 534 29,000  Level FlightAware
11:03PM 50.1400 11.8600 284° West 461 531 29,000  Level FlightAware
11:04PM 50.1630 11.7120 284° West 459 528 29,000 -300 Level FlightAware
11:05PM 50.1830 11.5860 284° West 450 518 28,600 -780 Descending FlightAware
11:05PM 50.2010 11.4680 283° West 443 510 28,000 -1,020 Descending FlightAware
11:06PM 50.2240 11.3200 284° West 438 504 27,200 -1,020 Descending FlightAware
11:07PM 50.2410 11.2060 283° West 433 498 26,600 -1,140 Descending FlightAware
11:07PM 50.2640 11.0590 284° West 426 490 25,600 -1,440 Descending FlightAware
11:08PM 50.2810 10.9410 283° West 424 488 24,600 -1,560 Descending FlightAware
11:09PM 50.2960 10.8430 284° West 420 483 23,700 -1,560 Descending FlightAware
11:10PM 50.3200 10.6760 283° West 403 464 22,200 -1,560 Descending FlightAware
11:11PM 50.3520 10.4620 283° West 402 463 20,200 -2,040 Descending FlightAware
11:12PM 50.3800 10.2670 283° West 384 442 17,400 -2,580 Descending FlightAware
11:14PM 50.4130 10.0340 283° West 377 434 13,600 -2,580 Descending FlightAware
11:14PM 50.4280 9.9250 282° West 370 426 12,100 -1,200 Descending FlightAware
11:15PM 50.4420 9.8230 282° West 368 423 12,000 -120 Descending FlightAware
11:16PM 50.4580 9.7130 283° West 361 415 12,000  Level FlightAware
11:16PM 50.4720 9.6050 282° West 359 413 12,000  Level FlightAware
11:17PM 50.4720 9.5650 270° West 361 415 12,000  Level FlightAware
11:17PM 50.4520 9.4610 253° West 358 412 12,000  Level FlightAware
11:18PM 50.4310 9.3520 253° West 315 362 12,000 -300 Level FlightAware
11:19PM 50.4150 9.2680 253° West 286 329 11,600 -540 Descending FlightAware
11:19PM 50.3990 9.1910 252° West 261 300 11,300 -540 Descending FlightAware
11:20PM 50.3840 9.1190 252° West 233 268 10,900 -780 Descending FlightAware
11:21PM 50.3700 9.0510 252° West 224 258 10,200 -1,080 Descending FlightAware
11:21PM 50.3600 9.0040 252° West 222 255 9,700 -1,140 Descending FlightAware
11:22PM 50.3510 8.9590 253° West 221 254 9,100 -1,380 Descending FlightAware
11:22PM 50.3480 8.9460 250° West 221 254 8,800 -1,680 Descending FlightAware
11:22PM 50.3360 8.9300 220° Southwest 234 269 8,400 -1,200 Descending FlightAware
11:22PM 50.3250 8.9260 193° South 239 275 8,300 -1,440 Descending FlightAware
11:23PM 50.3030 8.9370 162° South 246 283 7,700 -1,620 Descending FlightAware
11:23PM 50.2950 8.9500 134° Southeast 262 302 7,500 -960 Descending FlightAware
11:23PM 50.2900 8.9740 108° East 260 299 7,300 -720 Descending FlightAware
11:24PM 50.2920 9.0240 86° East 257 296 7,000 -360 Descending FlightAware
11:24PM 50.2970 9.0730 81° East 258 297 7,000  Level FlightAware
11:24PM 50.2930 9.1280 96° East 257 296 7,000  Level FlightAware
11:25PM 50.2820 9.1450 135° Southeast 252 290 7,000 -840 Level FlightAware
11:25PM 50.2490 9.1670 157° South 248 285 6,400 -1,200 Descending FlightAware
11:25PM 50.2360 9.1700 172° South 239 275 6,200 -1,200 Descending FlightAware
11:26PM 50.2210 9.1630 197° South 231 266 5,900 -1,200 Descending FlightAware
11:26PM 50.2050 9.1440 217° Southwest 230 265 5,500 -1,200 Descending FlightAware
11:26PM 50.1790 9.1110 219° Southwest 228 262 4,900 -1,020 Descending FlightAware
11:27PM 50.1570 9.0740 227° Southwest 223 257 4,400 -960 Descending FlightAware
11:28PM 50.1440 9.0270 247° West 220 253 3,900 -780 Descending FlightAware
11:28PM 50.1370 8.9950 251° West 204 235 3,700 -240 Descending FlightAware
11:28PM 50.1270 8.9560 248° West 172 198 3,700  Level FlightAware
11:29PM 50.1190 8.9200 251° West 171 197 3,700  Level FlightAware
11:29PM 50.1120 8.8920 249° West 171 197 3,700  Level FlightAware
11:30PM 50.1040 8.8560 251° West 170 196 3,700 -360 Level FlightAware
11:30PM 50.0970 8.8280 249° West 174 200 3,400 -900 Descending FlightAware
11:31PM 50.0890 8.7930 250° West 173 199 2,900 -960 Descending FlightAware
11:31PM 50.0850 8.7760 250° West 174 200 2,700 -900 Descending FlightAware
11:31PM 50.0780 8.7460 250° West 171 197 2,300 -900 Descending FlightAware
11:32PM 50.0740 8.7300 249° West 168 193 2,100 -840 Descending FlightAware
11:32PM 50.0670 8.7000 250° West 160 184 1,700 -780 Descending FlightAware
11:33PM 50.0610 8.6740 250° West 147 169 1,400 -900 Descending FlightAware
11:33PM 50.0540 8.6440 250° West 138 159 900 -900 Descending FlightAware
11:34PM 50.0480 8.6190 250° West 137 158 600 -660 Descending FlightAware
11:34PM 50.0420 8.5950 249° West 133 153 300 -360 Descending FlightAware
11:34PM 50.0370 8.5740 250° West 133 153 300  Level FlightAware
11:37PM 50.0264 8.5431 242° Southwest  Level Estimated